sensor_id;sensor_type;location;lat;lon;timestamp;P1;durP1;ratioP1;P2;durP2;ratioP2
58685;SDS011;44465;53.206;-6.106;2022-11-06T00:00:13;3.95;;;2.00;;
58685;SDS011;44465;53.206;-6.106;2022-11-06T00:02:39;2.60;;;1.70;;
58685;SDS011;44465;53.206;-6.106;2022-11-06T00:05:05;2.75;;;1.67;;
58685;SDS011;44465;53.206;-6.106;2022-11-06T00:07:50;3.67;;;1.50;;
58685;SDS011;44465;53.206;-6.106;2022-11-06T00:10:15;4.40;;;1.75;;
58685;SDS011;44465;53.206;-6.106;2022-11-06T00:12:42;3.20;;;1.63;;
58685;SDS011;44465;53.206;-6.106;2022-11-06T00:15:08;4.75;;;1.67;;
58685;SDS011;44465;53.206;-6.106;2022-11-06T00:17:34;4.00;;;1.60;;
58685;SDS011;44465;53.206;-6.106;2022-11-06T00:20:00;5.93;;;1.70;;
58685;SDS011;44465;53.206;-6.106;2022-11-06T00:22:25;3.10;;;1.88;;
58685;SDS011;44465;53.206;-6.106;2022-11-06T00:24:51;3.05;;;1.52;;
58685;SDS011;44465;53.206;-6.106;2022-11-06T00:27:17;5.90;;;2.08;;
58685;SDS011;44465;53.206;-6.106;2022-11-06T00:29:42;3.55;;;1.50;;
58685;SDS011;44465;53.206;-6.106;2022-11-06T00:32:08;6.72;;;2.05;;
58685;SDS011;44465;53.206;-6.106;2022-11-06T00:34:33;4.55;;;2.00;;
58685;SDS011;44465;53.206;-6.106;2022-11-06T00:36:59;4.25;;;1.58;;
58685;SDS011;44465;53.206;-6.106;2022-11-06T00:39:24;3.47;;;1.83;;
58685;SDS011;44465;53.206;-6.106;2022-11-06T00:41:50;3.95;;;1.70;;
58685;SDS011;44465;53.206;-6.106;2022-11-06T00:44:16;2.17;;;1.63;;
58685;SDS011;44465;53.206;-6.106;2022-11-06T00:46:41;3.42;;;1.63;;
58685;SDS011;44465;53.206;-6.106;2022-11-06T00:49:09;2.95;;;1.70;;
58685;SDS011;44465;53.206;-6.106;2022-11-06T00:51:35;3.50;;;1.25;;
58685;SDS011;44465;53.206;-6.106;2022-11-06T00:54:04;3.20;;;1.80;;
58685;SDS011;44465;53.206;-6.106;2022-11-06T00:56:32;3.08;;;1.77;;
58685;SDS011;44465;53.206;-6.106;2022-11-06T00:59:02;3.42;;;1.60;;
58685;SDS011;44465;53.206;-6.106;2022-11-06T01:01:34;2.70;;;1.50;;
58685;SDS011;44465;53.206;-6.106;2022-11-06T01:04:02;4.35;;;1.90;;
58685;SDS011;44465;53.206;-6.106;2022-11-06T01:06:31;1.83;;;1.40;;
58685;SDS011;44465;53.206;-6.106;2022-11-06T01:08:59;2.75;;;1.42;;
58685;SDS011;44465;53.206;-6.106;2022-11-06T01:11:31;3.45;;;1.20;;
58685;SDS011;44465;53.206;-6.106;2022-11-06T01:14:07;3.13;;;1.23;;
58685;SDS011;44465;53.206;-6.106;2022-11-06T01:16:35;1.98;;;1.33;;
58685;SDS011;44465;53.206;-6.106;2022-11-06T01:19:00;5.07;;;1.40;;
58685;SDS011;44465;53.206;-6.106;2022-11-06T01:21:27;5.60;;;1.50;;
58685;SDS011;44465;53.206;-6.106;2022-11-06T01:24:03;2.63;;;1.52;;
58685;SDS011;44465;53.206;-6.106;2022-11-06T01:26:31;2.72;;;1.30;;
58685;SDS011;44465;53.206;-6.106;2022-11-06T01:28:57;2.20;;;1.20;;
58685;SDS011;44465;53.206;-6.106;2022-11-06T01:31:25;3.08;;;1.52;;
58685;SDS011;44465;53.206;-6.106;2022-11-06T01:33:52;3.90;;;1.30;;
58685;SDS011;44465;53.206;-6.106;2022-11-06T01:36:19;4.00;;;1.58;;
58685;SDS011;44465;53.206;-6.106;2022-11-06T01:38:46;2.22;;;1.02;;
58685;SDS011;44465;53.206;-6.106;2022-11-06T01:41:14;2.03;;;1.20;;
58685;SDS011;44465;53.206;-6.106;2022-11-06T01:46:20;2.97;;;1.50;;
58685;SDS011;44465;53.206;-6.106;2022-11-06T01:48:49;3.25;;;1.25;;
58685;SDS011;44465;53.206;-6.106;2022-11-06T01:51:18;3.80;;;1.38;;
58685;SDS011;44465;53.206;-6.106;2022-11-06T01:53:46;3.28;;;1.55;;
58685;SDS011;44465;53.206;-6.106;2022-11-06T01:56:11;4.28;;;1.60;;
58685;SDS011;44465;53.206;-6.106;2022-11-06T01:58:39;4.30;;;1.48;;
58685;SDS011;44465;53.206;-6.106;2022-11-06T02:01:10;4.15;;;1.35;;
58685;SDS011;44465;53.206;-6.106;2022-11-06T02:03:37;2.50;;;1.25;;
58685;SDS011;44465;53.206;-6.106;2022-11-06T02:06:06;2.42;;;1.23;;
58685;SDS011;44465;53.206;-6.106;2022-11-06T02:08:33;1.45;;;1.00;;
58685;SDS011;44465;53.206;-6.106;2022-11-06T02:10:59;4.00;;;1.40;;
58685;SDS011;44465;53.206;-6.106;2022-11-06T02:13:36;4.72;;;1.40;;
58685;SDS011;44465;53.206;-6.106;2022-11-06T02:27:22;2.40;;;1.30;;
58685;SDS011;44465;53.206;-6.106;2022-11-06T02:29:56;1.33;;;1.00;;
58685;SDS011;44465;53.206;-6.106;2022-11-06T02:35:22;4.63;;;1.42;;
58685;SDS011;44465;53.206;-6.106;2022-11-06T02:37:54;3.55;;;1.20;;
58685;SDS011;44465;53.206;-6.106;2022-11-06T02:40:24;2.67;;;0.95;;
58685;SDS011;44465;53.206;-6.106;2022-11-06T02:42:57;5.82;;;1.70;;
58685;SDS011;44465;53.206;-6.106;2022-11-06T02:45:26;1.30;;;1.10;;
58685;SDS011;44465;53.206;-6.106;2022-11-06T02:47:56;1.60;;;1.00;;
58685;SDS011;44465;53.206;-6.106;2022-11-06T02:50:24;1.35;;;0.90;;
58685;SDS011;44465;53.206;-6.106;2022-11-06T02:52:57;2.78;;;0.95;;
58685;SDS011;44465;53.206;-6.106;2022-11-06T02:55:34;2.90;;;1.20;;
58685;SDS011;44465;53.206;-6.106;2022-11-06T03:01:02;2.40;;;0.95;;
58685;SDS011;44465;53.206;-6.106;2022-11-06T03:03:32;4.00;;;1.55;;
58685;SDS011;44465;53.206;-6.106;2022-11-06T03:06:14;2.08;;;0.85;;
58685;SDS011;44465;53.206;-6.106;2022-11-06T03:11:23;2.00;;;0.90;;
58685;SDS011;44465;53.206;-6.106;2022-11-06T03:13:56;1.92;;;1.05;;
58685;SDS011;44465;53.206;-6.106;2022-11-06T03:30:27;1.67;;;0.95;;
58685;SDS011;44465;53.206;-6.106;2022-11-06T03:38:36;1.58;;;0.82;;
58685;SDS011;44465;53.206;-6.106;2022-11-06T03:41:11;3.22;;;0.80;;
58685;SDS011;44465;53.206;-6.106;2022-11-06T03:43:42;1.90;;;0.90;;
58685;SDS011;44465;53.206;-6.106;2022-11-06T03:46:14;2.10;;;1.42;;
58685;SDS011;44465;53.206;-6.106;2022-11-06T03:48:47;2.03;;;0.90;;
58685;SDS011;44465;53.206;-6.106;2022-11-06T03:51:17;1.58;;;0.93;;
58685;SDS011;44465;53.206;-6.106;2022-11-06T03:53:57;1.50;;;0.75;;
58685;SDS011;44465;53.206;-6.106;2022-11-06T03:56:30;2.03;;;0.70;;
58685;SDS011;44465;53.206;-6.106;2022-11-06T03:59:03;3.03;;;1.00;;
58685;SDS011;44465;53.206;-6.106;2022-11-06T04:01:32;1.48;;;0.80;;
58685;SDS011;44465;53.206;-6.106;2022-11-06T04:04:44;2.17;;;0.70;;
58685;SDS011;44465;53.206;-6.106;2022-11-06T04:06:59;2.85;;;0.98;;
58685;SDS011;44465;53.206;-6.106;2022-11-06T04:09:30;1.35;;;0.88;;
58685;SDS011;44465;53.206;-6.106;2022-11-06T04:12:19;1.63;;;0.88;;
58685;SDS011;44465;53.206;-6.106;2022-11-06T04:15:06;1.58;;;0.70;;
58685;SDS011;44465;53.206;-6.106;2022-11-06T04:17:36;2.05;;;0.88;;
58685;SDS011;44465;53.206;-6.106;2022-11-06T04:20:04;1.25;;;0.80;;
58685;SDS011;44465;53.206;-6.106;2022-11-06T04:25:18;1.83;;;0.80;;
58685;SDS011;44465;53.206;-6.106;2022-11-06T04:36:41;1.83;;;0.57;;
58685;SDS011;44465;53.206;-6.106;2022-11-06T04:44:51;1.50;;;0.70;;
58685;SDS011;44465;53.206;-6.106;2022-11-06T04:47:21;1.42;;;0.85;;
58685;SDS011;44465;53.206;-6.106;2022-11-06T04:49:49;0.43;;;0.43;;
58685;SDS011;44465;53.206;-6.106;2022-11-06T04:52:17;1.05;;;0.63;;
58685;SDS011;44465;53.206;-6.106;2022-11-06T04:54:46;1.73;;;0.75;;
58685;SDS011;44465;53.206;-6.106;2022-11-06T04:57:12;1.40;;;0.60;;
58685;SDS011;44465;53.206;-6.106;2022-11-06T04:59:38;1.60;;;0.75;;
58685;SDS011;44465;53.206;-6.106;2022-11-06T05:02:04;0.95;;;0.52;;
58685;SDS011;44465;53.206;-6.106;2022-11-06T05:04:29;2.80;;;0.70;;
58685;SDS011;44465;53.206;-6.106;2022-11-06T05:06:55;0.60;;;0.43;;
58685;SDS011;44465;53.206;-6.106;2022-11-06T05:09:21;1.13;;;0.70;;
58685;SDS011;44465;53.206;-6.106;2022-11-06T05:11:46;1.00;;;0.45;;
58685;SDS011;44465;53.206;-6.106;2022-11-06T05:14:11;2.65;;;0.63;;
58685;SDS011;44465;53.206;-6.106;2022-11-06T05:16:37;0.40;;;0.40;;
58685;SDS011;44465;53.206;-6.106;2022-11-06T05:19:03;0.98;;;0.60;;
58685;SDS011;44465;53.206;-6.106;2022-11-06T05:21:28;0.95;;;0.50;;
58685;SDS011;44465;53.206;-6.106;2022-11-06T05:24:12;0.82;;;0.57;;
58685;SDS011;44465;53.206;-6.106;2022-11-06T05:26:38;1.08;;;0.52;;
58685;SDS011;44465;53.206;-6.106;2022-11-06T05:29:03;0.50;;;0.50;;
58685;SDS011;44465;53.206;-6.106;2022-11-06T05:31:29;1.00;;;0.68;;
58685;SDS011;44465;53.206;-6.106;2022-11-06T05:33:54;1.38;;;0.52;;
58685;SDS011;44465;53.206;-6.106;2022-11-06T05:36:20;0.77;;;0.55;;
58685;SDS011;44465;53.206;-6.106;2022-11-06T05:38:45;0.40;;;0.40;;
58685;SDS011;44465;53.206;-6.106;2022-11-06T05:41:11;0.50;;;0.50;;
58685;SDS011;44465;53.206;-6.106;2022-11-06T05:43:36;0.57;;;0.57;;
58685;SDS011;44465;53.206;-6.106;2022-11-06T05:46:02;1.95;;;0.63;;
58685;SDS011;44465;53.206;-6.106;2022-11-06T05:48:27;1.83;;;0.60;;
58685;SDS011;44465;53.206;-6.106;2022-11-06T05:50:58;1.45;;;0.55;;
58685;SDS011;44465;53.206;-6.106;2022-11-06T05:53:31;1.08;;;0.68;;
58685;SDS011;44465;53.206;-6.106;2022-11-06T05:55:58;1.63;;;0.90;;
58685;SDS011;44465;53.206;-6.106;2022-11-06T05:58:24;2.13;;;0.52;;
58685;SDS011;44465;53.206;-6.106;2022-11-06T06:00:50;0.32;;;0.32;;
58685;SDS011;44465;53.206;-6.106;2022-11-06T06:03:16;0.60;;;0.50;;
58685;SDS011;44465;53.206;-6.106;2022-11-06T06:05:41;1.27;;;0.60;;
58685;SDS011;44465;53.206;-6.106;2022-11-06T06:08:07;0.88;;;0.38;;
58685;SDS011;44465;53.206;-6.106;2022-11-06T06:10:33;0.57;;;0.38;;
58685;SDS011;44465;53.206;-6.106;2022-11-06T06:12:58;1.52;;;0.57;;
58685;SDS011;44465;53.206;-6.106;2022-11-06T06:15:24;0.55;;;0.50;;
58685;SDS011;44465;53.206;-6.106;2022-11-06T06:17:49;1.88;;;0.57;;
58685;SDS011;44465;53.206;-6.106;2022-11-06T06:20:15;0.70;;;0.45;;
58685;SDS011;44465;53.206;-6.106;2022-11-06T06:22:40;1.27;;;0.52;;
58685;SDS011;44465;53.206;-6.106;2022-11-06T06:25:06;0.68;;;0.50;;
58685;SDS011;44465;53.206;-6.106;2022-11-06T06:27:31;0.90;;;0.75;;
58685;SDS011;44465;53.206;-6.106;2022-11-06T06:29:57;0.50;;;0.50;;
58685;SDS011;44465;53.206;-6.106;2022-11-06T06:32:23;0.45;;;0.45;;
58685;SDS011;44465;53.206;-6.106;2022-11-06T06:34:48;0.40;;;0.38;;
58685;SDS011;44465;53.206;-6.106;2022-11-06T06:37:14;1.33;;;0.50;;
58685;SDS011;44465;53.206;-6.106;2022-11-06T06:39:39;1.45;;;0.30;;
58685;SDS011;44465;53.206;-6.106;2022-11-06T06:42:05;0.55;;;0.45;;
58685;SDS011;44465;53.206;-6.106;2022-11-06T06:44:30;0.40;;;0.40;;
58685;SDS011;44465;53.206;-6.106;2022-11-06T06:46:56;1.05;;;0.60;;
58685;SDS011;44465;53.206;-6.106;2022-11-06T06:49:21;0.63;;;0.50;;
58685;SDS011;44465;53.206;-6.106;2022-11-06T06:51:47;1.20;;;0.60;;
58685;SDS011;44465;53.206;-6.106;2022-11-06T06:54:14;0.55;;;0.40;;
58685;SDS011;44465;53.206;-6.106;2022-11-06T06:56:39;0.60;;;0.43;;
58685;SDS011;44465;53.206;-6.106;2022-11-06T06:59:05;2.10;;;0.40;;
58685;SDS011;44465;53.206;-6.106;2022-11-06T07:01:32;0.60;;;0.60;;
58685;SDS011;44465;53.206;-6.106;2022-11-06T07:03:58;0.98;;;0.40;;
58685;SDS011;44465;53.206;-6.106;2022-11-06T07:06:24;1.13;;;0.70;;
58685;SDS011;44465;53.206;-6.106;2022-11-06T07:08:53;0.40;;;0.40;;
58685;SDS011;44465;53.206;-6.106;2022-11-06T07:11:19;0.98;;;0.50;;
58685;SDS011;44465;53.206;-6.106;2022-11-06T07:13:45;0.73;;;0.52;;
58685;SDS011;44465;53.206;-6.106;2022-11-06T07:16:11;0.80;;;0.45;;
58685;SDS011;44465;53.206;-6.106;2022-11-06T07:18:37;0.73;;;0.50;;
58685;SDS011;44465;53.206;-6.106;2022-11-06T07:21:07;0.63;;;0.40;;
58685;SDS011;44465;53.206;-6.106;2022-11-06T07:23:35;1.00;;;0.50;;
58685;SDS011;44465;53.206;-6.106;2022-11-06T07:26:01;0.88;;;0.35;;
58685;SDS011;44465;53.206;-6.106;2022-11-06T07:28:28;0.40;;;0.40;;
58685;SDS011;44465;53.206;-6.106;2022-11-06T07:31:00;1.17;;;0.50;;
58685;SDS011;44465;53.206;-6.106;2022-11-06T07:33:27;0.50;;;0.47;;
58685;SDS011;44465;53.206;-6.106;2022-11-06T07:35:53;2.92;;;0.80;;
58685;SDS011;44465;53.206;-6.106;2022-11-06T07:38:19;0.80;;;0.45;;
58685;SDS011;44465;53.206;-6.106;2022-11-06T07:40:44;0.57;;;0.40;;
58685;SDS011;44465;53.206;-6.106;2022-11-06T07:43:10;1.13;;;0.73;;
58685;SDS011;44465;53.206;-6.106;2022-11-06T07:45:36;0.60;;;0.50;;
58685;SDS011;44465;53.206;-6.106;2022-11-06T07:48:03;1.38;;;0.70;;
58685;SDS011;44465;53.206;-6.106;2022-11-06T07:50:29;0.90;;;0.47;;
58685;SDS011;44465;53.206;-6.106;2022-11-06T07:52:55;1.08;;;0.52;;
58685;SDS011;44465;53.206;-6.106;2022-11-06T07:55:21;1.75;;;0.68;;
58685;SDS011;44465;53.206;-6.106;2022-11-06T07:57:46;1.50;;;0.60;;
58685;SDS011;44465;53.206;-6.106;2022-11-06T08:00:12;1.05;;;0.57;;
58685;SDS011;44465;53.206;-6.106;2022-11-06T08:02:38;2.35;;;0.63;;
58685;SDS011;44465;53.206;-6.106;2022-11-06T08:05:05;0.85;;;0.55;;
58685;SDS011;44465;53.206;-6.106;2022-11-06T08:07:30;1.40;;;0.63;;
58685;SDS011;44465;53.206;-6.106;2022-11-06T08:09:56;1.55;;;0.60;;
58685;SDS011;44465;53.206;-6.106;2022-11-06T08:12:23;0.80;;;0.70;;
58685;SDS011;44465;53.206;-6.106;2022-11-06T08:14:48;1.48;;;0.40;;
58685;SDS011;44465;53.206;-6.106;2022-11-06T08:17:14;1.52;;;0.70;;
58685;SDS011;44465;53.206;-6.106;2022-11-06T08:19:39;2.42;;;0.77;;
58685;SDS011;44465;53.206;-6.106;2022-11-06T08:22:06;4.47;;;0.82;;
58685;SDS011;44465;53.206;-6.106;2022-11-06T08:24:33;0.65;;;0.63;;
58685;SDS011;44465;53.206;-6.106;2022-11-06T08:26:59;1.33;;;0.60;;
58685;SDS011;44465;53.206;-6.106;2022-11-06T08:29:24;1.33;;;0.55;;
58685;SDS011;44465;53.206;-6.106;2022-11-06T08:31:50;1.35;;;0.85;;
58685;SDS011;44465;53.206;-6.106;2022-11-06T08:34:15;0.63;;;0.60;;
58685;SDS011;44465;53.206;-6.106;2022-11-06T08:36:41;1.90;;;0.80;;
58685;SDS011;44465;53.206;-6.106;2022-11-06T08:39:14;1.38;;;0.55;;
58685;SDS011;44465;53.206;-6.106;2022-11-06T08:41:40;2.92;;;0.82;;
58685;SDS011;44465;53.206;-6.106;2022-11-06T08:44:06;1.63;;;0.55;;
58685;SDS011;44465;53.206;-6.106;2022-11-06T08:46:31;0.65;;;0.55;;
58685;SDS011;44465;53.206;-6.106;2022-11-06T08:48:57;1.20;;;0.63;;
58685;SDS011;44465;53.206;-6.106;2022-11-06T08:51:22;1.45;;;0.40;;
58685;SDS011;44465;53.206;-6.106;2022-11-06T08:53:48;1.08;;;0.88;;
58685;SDS011;44465;53.206;-6.106;2022-11-06T08:56:13;0.80;;;0.60;;
58685;SDS011;44465;53.206;-6.106;2022-11-06T08:58:39;1.35;;;0.65;;
58685;SDS011;44465;53.206;-6.106;2022-11-06T09:01:05;2.10;;;0.70;;
58685;SDS011;44465;53.206;-6.106;2022-11-06T09:03:30;2.45;;;0.63;;
58685;SDS011;44465;53.206;-6.106;2022-11-06T09:05:56;2.88;;;0.75;;
58685;SDS011;44465;53.206;-6.106;2022-11-06T09:08:21;2.67;;;0.80;;
58685;SDS011;44465;53.206;-6.106;2022-11-06T09:10:48;2.22;;;0.68;;
58685;SDS011;44465;53.206;-6.106;2022-11-06T09:13:14;1.83;;;0.68;;
58685;SDS011;44465;53.206;-6.106;2022-11-06T09:15:41;3.03;;;0.77;;
58685;SDS011;44465;53.206;-6.106;2022-11-06T09:18:06;2.08;;;0.98;;
58685;SDS011;44465;53.206;-6.106;2022-11-06T09:20:32;1.05;;;0.57;;
58685;SDS011;44465;53.206;-6.106;2022-11-06T09:22:59;0.52;;;0.47;;
58685;SDS011;44465;53.206;-6.106;2022-11-06T09:25:26;2.30;;;0.57;;
58685;SDS011;44465;53.206;-6.106;2022-11-06T09:27:53;1.95;;;0.75;;
58685;SDS011;44465;53.206;-6.106;2022-11-06T09:30:19;1.25;;;0.43;;
58685;SDS011;44465;53.206;-6.106;2022-11-06T09:32:53;1.73;;;0.70;;
58685;SDS011;44465;53.206;-6.106;2022-11-06T09:35:21;1.25;;;0.65;;
58685;SDS011;44465;53.206;-6.106;2022-11-06T09:37:48;1.60;;;0.65;;
58685;SDS011;44465;53.206;-6.106;2022-11-06T09:42:57;3.95;;;1.05;;
58685;SDS011;44465;53.206;-6.106;2022-11-06T09:45:25;4.30;;;1.63;;
58685;SDS011;44465;53.206;-6.106;2022-11-06T09:48:00;1.42;;;0.70;;
58685;SDS011;44465;53.206;-6.106;2022-11-06T09:50:31;1.55;;;0.80;;
58685;SDS011;44465;53.206;-6.106;2022-11-06T09:53:02;0.95;;;0.60;;
58685;SDS011;44465;53.206;-6.106;2022-11-06T09:55:41;1.27;;;0.65;;
58685;SDS011;44465;53.206;-6.106;2022-11-06T09:58:10;1.27;;;0.47;;
58685;SDS011;44465;53.206;-6.106;2022-11-06T10:00:40;1.77;;;0.50;;
58685;SDS011;44465;53.206;-6.106;2022-11-06T10:03:11;0.98;;;0.60;;
58685;SDS011;44465;53.206;-6.106;2022-11-06T10:05:40;2.28;;;0.77;;
58685;SDS011;44465;53.206;-6.106;2022-11-06T10:08:16;2.83;;;0.60;;
58685;SDS011;44465;53.206;-6.106;2022-11-06T10:11:01;3.08;;;1.00;;
58685;SDS011;44465;53.206;-6.106;2022-11-06T10:14:10;1.52;;;0.70;;
58685;SDS011;44465;53.206;-6.106;2022-11-06T10:19:09;1.95;;;0.50;;
58685;SDS011;44465;53.206;-6.106;2022-11-06T10:21:48;1.98;;;1.00;;
58685;SDS011;44465;53.206;-6.106;2022-11-06T10:24:33;2.47;;;0.82;;
58685;SDS011;44465;53.206;-6.106;2022-11-06T10:27:17;0.60;;;0.60;;
58685;SDS011;44465;53.206;-6.106;2022-11-06T10:40:30;2.67;;;0.70;;
58685;SDS011;44465;53.206;-6.106;2022-11-06T10:43:00;1.17;;;0.50;;
58685;SDS011;44465;53.206;-6.106;2022-11-06T10:45:36;2.03;;;0.60;;
58685;SDS011;44465;53.206;-6.106;2022-11-06T10:48:18;0.85;;;0.60;;
58685;SDS011;44465;53.206;-6.106;2022-11-06T10:50:49;1.00;;;0.55;;
58685;SDS011;44465;53.206;-6.106;2022-11-06T10:53:47;1.15;;;0.60;;
58685;SDS011;44465;53.206;-6.106;2022-11-06T10:59:25;2.53;;;0.90;;
58685;SDS011;44465;53.206;-6.106;2022-11-06T11:01:51;1.90;;;0.80;;
58685;SDS011;44465;53.206;-6.106;2022-11-06T11:04:18;3.72;;;0.55;;
58685;SDS011;44465;53.206;-6.106;2022-11-06T11:06:43;1.73;;;0.80;;
58685;SDS011;44465;53.206;-6.106;2022-11-06T11:12:04;0.98;;;0.88;;
58685;SDS011;44465;53.206;-6.106;2022-11-06T11:17:40;3.33;;;0.70;;
58685;SDS011;44465;53.206;-6.106;2022-11-06T11:20:27;1.55;;;0.70;;
58685;SDS011;44465;53.206;-6.106;2022-11-06T11:23:30;0.82;;;0.60;;
58685;SDS011;44465;53.206;-6.106;2022-11-06T11:25:50;2.17;;;0.82;;
58685;SDS011;44465;53.206;-6.106;2022-11-06T11:28:21;1.90;;;0.77;;
58685;SDS011;44465;53.206;-6.106;2022-11-06T11:30:52;1.38;;;0.80;;
58685;SDS011;44465;53.206;-6.106;2022-11-06T11:33:22;1.92;;;0.90;;
58685;SDS011;44465;53.206;-6.106;2022-11-06T11:35:50;3.40;;;1.25;;
58685;SDS011;44465;53.206;-6.106;2022-11-06T11:38:18;2.13;;;0.68;;
58685;SDS011;44465;53.206;-6.106;2022-11-06T11:43:29;1.35;;;0.77;;
58685;SDS011;44465;53.206;-6.106;2022-11-06T11:46:18;1.95;;;0.90;;
58685;SDS011;44465;53.206;-6.106;2022-11-06T11:53:42;2.53;;;0.77;;
58685;SDS011;44465;53.206;-6.106;2022-11-06T11:56:12;1.98;;;0.68;;
58685;SDS011;44465;53.206;-6.106;2022-11-06T11:58:46;3.70;;;0.90;;
58685;SDS011;44465;53.206;-6.106;2022-11-06T12:01:14;3.30;;;1.10;;
58685;SDS011;44465;53.206;-6.106;2022-11-06T12:03:41;3.17;;;1.25;;
58685;SDS011;44465;53.206;-6.106;2022-11-06T12:06:11;2.47;;;0.90;;
58685;SDS011;44465;53.206;-6.106;2022-11-06T12:08:39;1.35;;;0.73;;
58685;SDS011;44465;53.206;-6.106;2022-11-06T12:11:11;3.47;;;1.10;;
58685;SDS011;44465;53.206;-6.106;2022-11-06T12:13:43;0.98;;;0.70;;
58685;SDS011;44465;53.206;-6.106;2022-11-06T12:16:15;1.92;;;0.77;;
58685;SDS011;44465;53.206;-6.106;2022-11-06T12:18:47;2.60;;;0.70;;
58685;SDS011;44465;53.206;-6.106;2022-11-06T12:26:37;2.33;;;0.93;;
58685;SDS011;44465;53.206;-6.106;2022-11-06T12:29:38;2.72;;;1.30;;
58685;SDS011;44465;53.206;-6.106;2022-11-06T12:32:13;0.63;;;0.55;;
58685;SDS011;44465;53.206;-6.106;2022-11-06T12:40:28;0.80;;;0.50;;
58685;SDS011;44465;53.206;-6.106;2022-11-06T13:08:09;1.90;;;0.70;;
58685;SDS011;44465;53.206;-6.106;2022-11-06T13:27:03;3.28;;;0.85;;
58685;SDS011;44465;53.206;-6.106;2022-11-06T13:29:49;1.25;;;0.68;;
58685;SDS011;44465;53.206;-6.106;2022-11-06T13:32:19;2.05;;;1.20;;
58685;SDS011;44465;53.206;-6.106;2022-11-06T13:34:49;1.20;;;0.70;;
58685;SDS011;44465;53.206;-6.106;2022-11-06T13:37:19;2.42;;;0.73;;
58685;SDS011;44465;53.206;-6.106;2022-11-06T13:40:02;2.08;;;0.82;;
58685;SDS011;44465;53.206;-6.106;2022-11-06T13:42:41;3.45;;;0.80;;
58685;SDS011;44465;53.206;-6.106;2022-11-06T13:45:13;1.92;;;0.85;;
58685;SDS011;44465;53.206;-6.106;2022-11-06T13:47:47;1.30;;;0.80;;
58685;SDS011;44465;53.206;-6.106;2022-11-06T13:50:37;1.50;;;0.85;;
58685;SDS011;44465;53.206;-6.106;2022-11-06T13:55:55;1.20;;;0.70;;
58685;SDS011;44465;53.206;-6.106;2022-11-06T14:06:51;2.83;;;0.90;;
58685;SDS011;44465;53.206;-6.106;2022-11-06T14:09:21;1.65;;;0.80;;
58685;SDS011;44465;53.206;-6.106;2022-11-06T14:11:54;3.47;;;1.13;;
58685;SDS011;44465;53.206;-6.106;2022-11-06T14:14:24;1.35;;;0.80;;
58685;SDS011;44465;53.206;-6.106;2022-11-06T14:17:08;3.17;;;1.30;;
58685;SDS011;44465;53.206;-6.106;2022-11-06T14:19:37;1.70;;;0.70;;
58685;SDS011;44465;53.206;-6.106;2022-11-06T14:24:41;1.60;;;0.90;;
58685;SDS011;44465;53.206;-6.106;2022-11-06T14:30:01;0.98;;;0.50;;
58685;SDS011;44465;53.206;-6.106;2022-11-06T14:34:55;1.45;;;1.00;;
58685;SDS011;44465;53.206;-6.106;2022-11-06T14:42:31;2.58;;;0.80;;
58685;SDS011;44465;53.206;-6.106;2022-11-06T14:58:26;1.55;;;0.95;;
58685;SDS011;44465;53.206;-6.106;2022-11-06T15:16:23;1.35;;;1.08;;
58685;SDS011;44465;53.206;-6.106;2022-11-06T15:19:00;2.08;;;1.08;;
58685;SDS011;44465;53.206;-6.106;2022-11-06T15:21:44;2.45;;;0.75;;
58685;SDS011;44465;53.206;-6.106;2022-11-06T15:24:18;1.52;;;1.08;;
58685;SDS011;44465;53.206;-6.106;2022-11-06T15:26:50;3.08;;;1.13;;
58685;SDS011;44465;53.206;-6.106;2022-11-06T15:29:25;3.60;;;1.27;;
58685;SDS011;44465;53.206;-6.106;2022-11-06T15:32:02;1.98;;;1.13;;
58685;SDS011;44465;53.206;-6.106;2022-11-06T15:34:37;2.90;;;1.30;;
58685;SDS011;44465;53.206;-6.106;2022-11-06T15:39:40;2.65;;;1.20;;
58685;SDS011;44465;53.206;-6.106;2022-11-06T15:42:23;2.88;;;1.08;;
58685;SDS011;44465;53.206;-6.106;2022-11-06T15:44:51;3.15;;;1.40;;
58685;SDS011;44465;53.206;-6.106;2022-11-06T15:47:31;2.20;;;1.10;;
58685;SDS011;44465;53.206;-6.106;2022-11-06T15:55:37;3.13;;;1.38;;
58685;SDS011;44465;53.206;-6.106;2022-11-06T15:58:29;2.80;;;1.15;;
58685;SDS011;44465;53.206;-6.106;2022-11-06T16:00:54;4.75;;;1.40;;
58685;SDS011;44465;53.206;-6.106;2022-11-06T16:03:21;2.53;;;1.25;;
58685;SDS011;44465;53.206;-6.106;2022-11-06T16:05:52;2.45;;;1.17;;
58685;SDS011;44465;53.206;-6.106;2022-11-06T16:08:20;3.83;;;1.30;;
58685;SDS011;44465;53.206;-6.106;2022-11-06T16:10:49;2.05;;;1.10;;
58685;SDS011;44465;53.206;-6.106;2022-11-06T16:13:16;2.00;;;1.33;;
58685;SDS011;44465;53.206;-6.106;2022-11-06T16:15:45;3.45;;;1.27;;
58685;SDS011;44465;53.206;-6.106;2022-11-06T16:18:41;3.08;;;0.98;;
58685;SDS011;44465;53.206;-6.106;2022-11-06T16:28:59;5.47;;;1.45;;
58685;SDS011;44465;53.206;-6.106;2022-11-06T16:31:28;2.10;;;1.13;;
58685;SDS011;44465;53.206;-6.106;2022-11-06T16:36:25;3.20;;;1.35;;
58685;SDS011;44465;53.206;-6.106;2022-11-06T16:38:53;3.05;;;1.73;;
58685;SDS011;44465;53.206;-6.106;2022-11-06T16:54:50;3.03;;;1.40;;
58685;SDS011;44465;53.206;-6.106;2022-11-06T16:57:19;2.67;;;1.38;;
58685;SDS011;44465;53.206;-6.106;2022-11-06T17:02:58;2.28;;;1.20;;
58685;SDS011;44465;53.206;-6.106;2022-11-06T17:05:28;3.47;;;1.23;;
58685;SDS011;44465;53.206;-6.106;2022-11-06T17:13:14;2.60;;;1.15;;
58685;SDS011;44465;53.206;-6.106;2022-11-06T17:15:41;2.22;;;1.25;;
58685;SDS011;44465;53.206;-6.106;2022-11-06T17:18:12;3.00;;;1.20;;
58685;SDS011;44465;53.206;-6.106;2022-11-06T17:20:43;1.92;;;1.38;;
58685;SDS011;44465;53.206;-6.106;2022-11-06T17:23:12;2.20;;;1.48;;
58685;SDS011;44465;53.206;-6.106;2022-11-06T17:25:38;1.60;;;1.10;;
58685;SDS011;44465;53.206;-6.106;2022-11-06T17:28:03;1.95;;;1.10;;
58685;SDS011;44465;53.206;-6.106;2022-11-06T17:30:29;3.53;;;1.38;;
58685;SDS011;44465;53.206;-6.106;2022-11-06T17:32:54;2.25;;;1.23;;
58685;SDS011;44465;53.206;-6.106;2022-11-06T17:35:20;3.75;;;1.35;;
58685;SDS011;44465;53.206;-6.106;2022-11-06T17:37:45;3.45;;;2.00;;
58685;SDS011;44465;53.206;-6.106;2022-11-06T17:40:11;1.60;;;1.25;;
58685;SDS011;44465;53.206;-6.106;2022-11-06T17:42:36;2.88;;;1.40;;
58685;SDS011;44465;53.206;-6.106;2022-11-06T17:45:02;3.60;;;1.58;;
58685;SDS011;44465;53.206;-6.106;2022-11-06T17:47:28;1.90;;;1.40;;
58685;SDS011;44465;53.206;-6.106;2022-11-06T17:49:53;2.40;;;1.35;;
58685;SDS011;44465;53.206;-6.106;2022-11-06T17:52:18;1.92;;;1.25;;
58685;SDS011;44465;53.206;-6.106;2022-11-06T17:54:45;3.30;;;1.70;;
58685;SDS011;44465;53.206;-6.106;2022-11-06T17:57:11;2.72;;;1.20;;
58685;SDS011;44465;53.206;-6.106;2022-11-06T17:59:38;2.17;;;1.27;;
58685;SDS011;44465;53.206;-6.106;2022-11-06T18:02:03;1.42;;;1.30;;
58685;SDS011;44465;53.206;-6.106;2022-11-06T18:04:30;2.60;;;1.40;;
58685;SDS011;44465;53.206;-6.106;2022-11-06T18:06:58;2.83;;;1.48;;
58685;SDS011;44465;53.206;-6.106;2022-11-06T18:09:24;3.78;;;1.42;;
58685;SDS011;44465;53.206;-6.106;2022-11-06T18:11:51;1.30;;;1.20;;
58685;SDS011;44465;53.206;-6.106;2022-11-06T18:14:17;3.47;;;1.60;;
58685;SDS011;44465;53.206;-6.106;2022-11-06T18:16:44;2.53;;;1.50;;
58685;SDS011;44465;53.206;-6.106;2022-11-06T18:19:10;2.15;;;1.67;;
58685;SDS011;44465;53.206;-6.106;2022-11-06T18:21:39;1.58;;;1.30;;
58685;SDS011;44465;53.206;-6.106;2022-11-06T18:24:04;3.38;;;1.67;;
58685;SDS011;44465;53.206;-6.106;2022-11-06T18:26:30;2.67;;;1.77;;
58685;SDS011;44465;53.206;-6.106;2022-11-06T18:28:56;2.60;;;1.73;;
58685;SDS011;44465;53.206;-6.106;2022-11-06T18:31:22;2.95;;;1.55;;
58685;SDS011;44465;53.206;-6.106;2022-11-06T18:33:47;2.42;;;1.38;;
58685;SDS011;44465;53.206;-6.106;2022-11-06T18:36:13;1.95;;;1.70;;
58685;SDS011;44465;53.206;-6.106;2022-11-06T18:38:40;2.08;;;1.73;;
58685;SDS011;44465;53.206;-6.106;2022-11-06T18:41:09;1.55;;;1.45;;
58685;SDS011;44465;53.206;-6.106;2022-11-06T18:43:35;1.73;;;1.38;;